Flinter Rose — PBUB — position and weather

sailwx.info

Track history (hours):
 
Tides and Currents Weather Stations Pressure Air Temp Water Temp Dewpoint Dewpoint Depression Visibility Wind Speed Wind Dir Waves Ship Positions

Flinter Rose

Last reported at 2016-May-28 18:12 UTC. Time now 2016-May-28 19:44 UTC.
Position N 42°56' E 010°33'.

Length 101 m; draft 6.3 m.

Type: Cargo ship. MMSI: 246227000.

Date/timePositionNaut miles runAvg speedWind from/ knotsBaromVisibWave heightAir tempDewpointWater temp
2016-May-28 18:12N 42°56' E 010°33'0 0.0
2016-May-28 17:27N 42°56' E 010°33'0 0.0
2016-May-28 14:23N 42°56' E 010°33'0 0.0
2016-May-28 12:26N 42°56' E 010°33'0 0.0
2016-May-28 11:26N 42°56' E 010°33'0 0.0
2016-May-28 10:30N 42°56' E 010°33'0 0.0
2016-May-28 09:33N 42°56' E 010°33'1 0.7
2016-May-28 07:28N 42°56' E 010°35'0 0.0
2016-May-28 06:31N 42°56' E 010°35'0 0.0
2016-May-28 05:30N 42°56' E 010°35'0 0.0
2016-May-27 23:33N 42°56' E 010°35'0 0.0
2016-May-27 05:27N 42°56' E 010°35'0 0.0
2016-May-27 01:30N 42°56' E 010°35'0 0.0
2016-May-26 20:23N 42°56' E 010°35'20 1.5
2016-May-26 07:20N 42°54' E 010°08'910.3
2016-May-26 06:28N 42°54' E 009°55'28 9.7
2016-May-26 03:33N 43°05' E 009°20'1010.1
2016-May-26 02:33N 43°04' E 009°06'1310.3
2016-May-26 01:19N 43°02' E 008°49'810.1
2016-May-26 00:31N 43°01' E 008°38'1010.2
2016-May-25 23:32N 43°00' E 008°24'1010.0
2016-May-25 22:32N 42°59' E 008°10'2210.0
2016-May-25 20:18N 42°57' E 007°40'810.1
2016-May-25 19:31N 42°57' E 007°29'1010.2
2016-May-25 18:33N 42°56' E 007°16'30 9.9
2016-May-25 15:33N 42°53' E 006°36'14 9.6
2016-May-25 14:05N 42°51' E 006°17'49 9.8
2016-May-25 09:05N 43°08' E 005°14'610.0
2016-May-25 08:29N 43°10' E 005°06'8 8.8
2016-May-25 07:33N 43°17' E 004°59'9 9.1
2016-May-25 06:34N 43°24' E 004°53'1 1.1
2016-May-25 05:33N 43°26' E 004°53'0 0.0
2016-May-25 04:33N 43°26' E 004°53'0 0.0
2016-May-25 03:33N 43°26' E 004°53'0 0.1
2016-May-25 02:33N 43°26' E 004°53'0 0.0
2016-May-25 01:33N 43°26' E 004°53'0 0.0
2016-May-25 00:21N 43°26' E 004°53'0 0.0
2016-May-24 22:15N 43°26' E 004°53'0 0.0
2016-May-24 21:33N 43°26' E 004°53'0 0.0
2016-May-24 20:33N 43°26' E 004°53'0 0.0
2016-May-24 18:33N 43°26' E 004°53'0 0.0
2016-May-24 17:33N 43°26' E 004°53'0 0.0
2016-May-24 16:24N 43°26' E 004°53'0 0.0
2016-May-24 15:33N 43°26' E 004°53'0 0.0
2016-May-24 14:30N 43°26' E 004°53'0 0.0
2016-May-24 12:33N 43°26' E 004°53'0 0.0
2016-May-24 11:33N 43°26' E 004°53'0 0.0
2016-May-24 10:33N 43°26' E 004°53'0 0.0
2016-May-24 09:33N 43°26' E 004°53'0 0.0
2016-May-24 08:27N 43°26' E 004°53'0 0.0
2016-May-24 07:33N 43°26' E 004°53'0 0.0
2016-May-24 06:24N 43°26' E 004°53'0 0.0
2016-May-24 05:33N 43°26' E 004°53'0 0.0
2016-May-24 04:33N 43°26' E 004°53'0 0.0
2016-May-24 03:24N 43°26' E 004°53'0 0.0
2016-May-24 02:27N 43°26' E 004°53'0 0.0
2016-May-24 01:33N 43°26' E 004°53'0 0.0
2016-May-24 00:33N 43°26' E 004°53'0 0.0
2016-May-23 23:33N 43°26' E 004°53'0 0.0
2016-May-23 22:33N 43°26' E 004°53'0 0.0
2016-May-23 21:33N 43°26' E 004°53'0 0.0
2016-May-23 20:33N 43°26' E 004°53'0 0.0
2016-May-23 19:33N 43°26' E 004°53'0 0.0
2016-May-23 18:33N 43°26' E 004°53'0 0.0
2016-May-23 17:33N 43°26' E 004°53'0 0.0
2016-May-23 16:33N 43°26' E 004°53'0 0.0
2016-May-23 15:33N 43°26' E 004°53'0 0.0
2016-May-23 14:33N 43°26' E 004°53'0 0.0
2016-May-23 13:33N 43°26' E 004°53'0 0.0
2016-May-23 12:33N 43°26' E 004°53'0 0.0
2016-May-23 11:33N 43°26' E 004°53'0 0.0
2016-May-23 10:30N 43°26' E 004°53'0 0.0
2016-May-23 09:33N 43°26' E 004°53'0 0.0
2016-May-23 08:33N 43°26' E 004°53'0 0.0
2016-May-23 07:33N 43°26' E 004°53'0 0.0
2016-May-23 06:33N 43°26' E 004°53'0 0.0
2016-May-23 05:33N 43°26' E 004°53'0 0.0
2016-May-23 04:33N 43°26' E 004°53'0 0.0
2016-May-23 03:33N 43°26' E 004°53'0 0.0
2016-May-23 02:33N 43°26' E 004°53'0 0.0
2016-May-23 01:27N 43°26' E 004°53'0 0.0
2016-May-23 00:33N 43°26' E 004°53'0 0.0
2016-May-22 23:33N 43°26' E 004°53'0 0.0
2016-May-22 22:33N 43°26' E 004°53'0 0.0
2016-May-22 21:33N 43°26' E 004°53'0 0.0
2016-May-22 20:33N 43°26' E 004°53'0 0.0
2016-May-22 19:33N 43°26' E 004°53'0 0.0
2016-May-22 18:33N 43°26' E 004°53'0 0.0
2016-May-22 17:30N 43°26' E 004°53'0 0.0
2016-May-22 16:33N 43°26' E 004°53'0 0.0
2016-May-22 15:30N 43°26' E 004°53'0 0.0
2016-May-22 14:30N 43°26' E 004°53'0 0.0
2016-May-22 13:27N 43°26' E 004°53'0 0.0
2016-May-22 12:33N 43°26' E 004°53'0 0.0
2016-May-22 11:24N 43°26' E 004°53'0 0.0
2016-May-22 10:33N 43°26' E 004°53'0 0.0
2016-May-22 09:33N 43°26' E 004°53'0 0.1
2016-May-22 08:33N 43°26' E 004°53'5 5.2
2016-May-22 07:33N 43°22' E 004°58'10 9.7
2016-May-22 06:31N 43°12' E 005°02'10710.7
2016-May-21 20:33N 42°15' E 007°05'1010.0
2016-May-21 19:32N 42°10' E 007°17'3510.7
2016-May-21 16:14N 41°51' E 007°57'2110.8
2016-May-21 14:18N 41°40' E 008°21'  
Track history (hours):
 
Tides and Currents Weather Stations Pressure Air Temp Water Temp Dewpoint Dewpoint Depression Visibility Wind Speed Wind Dir Waves Ship Positions

Flinter Rose

Last reported at 2016-May-28 18:12 UTC. Time now 2016-May-28 19:44 UTC.
Position N 42°56' E 010°33'.

Length 101 m; draft 6.3 m.

Type: Cargo ship. MMSI: 246227000.

Date/timePositionNaut miles runAvg speedWind from/ knotsBaromVisibWave heightAir tempDewpointWater temp
2016-May-28 18:12N 42°56' E 010°33'0 0.0
2016-May-28 17:27N 42°56' E 010°33'0 0.0
2016-May-28 14:23N 42°56' E 010°33'0 0.0
2016-May-28 12:26N 42°56' E 010°33'0 0.0
2016-May-28 11:26N 42°56' E 010°33'0 0.0
2016-May-28 10:30N 42°56' E 010°33'0 0.0
2016-May-28 09:33N 42°56' E 010°33'1 0.7
2016-May-28 07:28N 42°56' E 010°35'0 0.0
2016-May-28 06:31N 42°56' E 010°35'0 0.0
2016-May-28 05:30N 42°56' E 010°35'0 0.0
2016-May-27 23:33N 42°56' E 010°35'0 0.0
2016-May-27 05:27N 42°56' E 010°35'0 0.0
2016-May-27 01:30N 42°56' E 010°35'0 0.0
2016-May-26 20:23N 42°56' E 010°35'20 1.5
2016-May-26 07:20N 42°54' E 010°08'910.3
2016-May-26 06:28N 42°54' E 009°55'28 9.7
2016-May-26 03:33N 43°05' E 009°20'1010.1
2016-May-26 02:33N 43°04' E 009°06'1310.3
2016-May-26 01:19N 43°02' E 008°49'810.1
2016-May-26 00:31N 43°01' E 008°38'1010.2
2016-May-25 23:32N 43°00' E 008°24'1010.0
2016-May-25 22:32N 42°59' E 008°10'2210.0
2016-May-25 20:18N 42°57' E 007°40'810.1
2016-May-25 19:31N 42°57' E 007°29'1010.2
2016-May-25 18:33N 42°56' E 007°16'30 9.9
2016-May-25 15:33N 42°53' E 006°36'14 9.6
2016-May-25 14:05N 42°51' E 006°17'49 9.8
2016-May-25 09:05N 43°08' E 005°14'610.0
2016-May-25 08:29N 43°10' E 005°06'8 8.8
2016-May-25 07:33N 43°17' E 004°59'9 9.1
2016-May-25 06:34N 43°24' E 004°53'1 1.1
2016-May-25 05:33N 43°26' E 004°53'0 0.0
2016-May-25 04:33N 43°26' E 004°53'0 0.0
2016-May-25 03:33N 43°26' E 004°53'0 0.1
2016-May-25 02:33N 43°26' E 004°53'0 0.0
2016-May-25 01:33N 43°26' E 004°53'0 0.0
2016-May-25 00:21N 43°26' E 004°53'0 0.0
2016-May-24 22:15N 43°26' E 004°53'0 0.0
2016-May-24 21:33N 43°26' E 004°53'0 0.0
2016-May-24 20:33N 43°26' E 004°53'0 0.0
2016-May-24 18:33N 43°26' E 004°53'0 0.0
2016-May-24 17:33N 43°26' E 004°53'0 0.0
2016-May-24 16:24N 43°26' E 004°53'0 0.0
2016-May-24 15:33N 43°26' E 004°53'0 0.0
2016-May-24 14:30N 43°26' E 004°53'0 0.0
2016-May-24 12:33N 43°26' E 004°53'0 0.0
2016-May-24 11:33N 43°26' E 004°53'0 0.0
2016-May-24 10:33N 43°26' E 004°53'0 0.0
2016-May-24 09:33N 43°26' E 004°53'0 0.0
2016-May-24 08:27N 43°26' E 004°53'0 0.0
2016-May-24 07:33N 43°26' E 004°53'0 0.0
2016-May-24 06:24N 43°26' E 004°53'0 0.0
2016-May-24 05:33N 43°26' E 004°53'0 0.0
2016-May-24 04:33N 43°26' E 004°53'0 0.0
2016-May-24 03:24N 43°26' E 004°53'0 0.0
2016-May-24 02:27N 43°26' E 004°53'0 0.0
2016-May-24 01:33N 43°26' E 004°53'0 0.0
2016-May-24 00:33N 43°26' E 004°53'0 0.0
2016-May-23 23:33N 43°26' E 004°53'0 0.0
2016-May-23 22:33N 43°26' E 004°53'0 0.0
2016-May-23 21:33N 43°26' E 004°53'0 0.0
2016-May-23 20:33N 43°26' E 004°53'0 0.0
2016-May-23 19:33N 43°26' E 004°53'0 0.0
2016-May-23 18:33N 43°26' E 004°53'0 0.0
2016-May-23 17:33N 43°26' E 004°53'0 0.0
2016-May-23 16:33N 43°26' E 004°53'0 0.0
2016-May-23 15:33N 43°26' E 004°53'0 0.0
2016-May-23 14:33N 43°26' E 004°53'0 0.0
2016-May-23 13:33N 43°26' E 004°53'0 0.0
2016-May-23 12:33N 43°26' E 004°53'0 0.0
2016-May-23 11:33N 43°26' E 004°53'0 0.0
2016-May-23 10:30N 43°26' E 004°53'0 0.0
2016-May-23 09:33N 43°26' E 004°53'0 0.0
2016-May-23 08:33N 43°26' E 004°53'0 0.0
2016-May-23 07:33N 43°26' E 004°53'0 0.0
2016-May-23 06:33N 43°26' E 004°53'0 0.0
2016-May-23 05:33N 43°26' E 004°53'0 0.0
2016-May-23 04:33N 43°26' E 004°53'0 0.0
2016-May-23 03:33N 43°26' E 004°53'0 0.0
2016-May-23 02:33N 43°26' E 004°53'0 0.0
2016-May-23 01:27N 43°26' E 004°53'0 0.0
2016-May-23 00:33N 43°26' E 004°53'0 0.0
2016-May-22 23:33N 43°26' E 004°53'0 0.0
2016-May-22 22:33N 43°26' E 004°53'0 0.0
2016-May-22 21:33N 43°26' E 004°53'0 0.0
2016-May-22 20:33N 43°26' E 004°53'0 0.0
2016-May-22 19:33N 43°26' E 004°53'0 0.0
2016-May-22 18:33N 43°26' E 004°53'0 0.0
2016-May-22 17:30N 43°26' E 004°53'0 0.0
2016-May-22 16:33N 43°26' E 004°53'0 0.0
2016-May-22 15:30N 43°26' E 004°53'0 0.0
2016-May-22 14:30N 43°26' E 004°53'0 0.0
2016-May-22 13:27N 43°26' E 004°53'0 0.0
2016-May-22 12:33N 43°26' E 004°53'0 0.0
2016-May-22 11:24N 43°26' E 004°53'0 0.0
2016-May-22 10:33N 43°26' E 004°53'0 0.0
2016-May-22 09:33N 43°26' E 004°53'0 0.1
2016-May-22 08:33N 43°26' E 004°53'5 5.2
2016-May-22 07:33N 43°22' E 004°58'10 9.7
2016-May-22 06:31N 43°12' E 005°02'10710.7
2016-May-21 20:33N 42°15' E 007°05'1010.0
2016-May-21 19:32N 42°10' E 007°17'3510.7
2016-May-21 16:14N 41°51' E 007°57'2110.8
2016-May-21 14:18N 41°40' E 008°21'  

Dump ship's entire track history